sensor_id;sensor_type;location;lat;lon;timestamp;temperature;humidity
5808;DHT22;2930;42.678;23.312;2023-02-15T00:01:17;2.40;87.80
5808;DHT22;2930;42.678;23.312;2023-02-15T00:03:43;2.40;87.90
5808;DHT22;2930;42.678;23.312;2023-02-15T00:06:08;2.30;88.00
5808;DHT22;2930;42.678;23.312;2023-02-15T00:08:34;2.30;88.30
5808;DHT22;2930;42.678;23.312;2023-02-15T00:11:09;2.30;88.40
5808;DHT22;2930;42.678;23.312;2023-02-15T00:13:35;2.30;88.30
5808;DHT22;2930;42.678;23.312;2023-02-15T00:16:06;2.20;88.50
5808;DHT22;2930;42.678;23.312;2023-02-15T00:18:33;2.20;88.60
5808;DHT22;2930;42.678;23.312;2023-02-15T00:21:03;2.20;88.50
5808;DHT22;2930;42.678;23.312;2023-02-15T00:23:29;2.30;88.50
5808;DHT22;2930;42.678;23.312;2023-02-15T00:26:09;2.20;88.80
5808;DHT22;2930;42.678;23.312;2023-02-15T00:28:35;2.20;88.80
5808;DHT22;2930;42.678;23.312;2023-02-15T00:31:09;2.20;89.00
5808;DHT22;2930;42.678;23.312;2023-02-15T00:33:37;2.20;88.80
5808;DHT22;2930;42.678;23.312;2023-02-15T00:36:04;2.20;88.90
5808;DHT22;2930;42.678;23.312;2023-02-15T00:38:31;2.20;89.10
5808;DHT22;2930;42.678;23.312;2023-02-15T00:40:58;2.20;89.10
5808;DHT22;2930;42.678;23.312;2023-02-15T00:43:25;2.10;89.40
5808;DHT22;2930;42.678;23.312;2023-02-15T00:45:51;2.20;89.10
5808;DHT22;2930;42.678;23.312;2023-02-15T00:48:17;2.20;89.00
5808;DHT22;2930;42.678;23.312;2023-02-15T00:50:48;2.20;88.90
5808;DHT22;2930;42.678;23.312;2023-02-15T00:53:14;2.30;88.70
5808;DHT22;2930;42.678;23.312;2023-02-15T00:55:39;2.30;88.70
5808;DHT22;2930;42.678;23.312;2023-02-15T00:58:06;2.20;88.80
5808;DHT22;2930;42.678;23.312;2023-02-15T01:00:32;2.30;88.70
5808;DHT22;2930;42.678;23.312;2023-02-15T01:02:58;2.30;88.60
5808;DHT22;2930;42.678;23.312;2023-02-15T01:05:24;2.30;88.40
5808;DHT22;2930;42.678;23.312;2023-02-15T01:07:49;2.30;88.40
5808;DHT22;2930;42.678;23.312;2023-02-15T01:10:15;2.30;88.80
5808;DHT22;2930;42.678;23.312;2023-02-15T01:12:41;2.20;89.10
5808;DHT22;2930;42.678;23.312;2023-02-15T01:15:07;2.20;89.10
5808;DHT22;2930;42.678;23.312;2023-02-15T01:17:33;2.20;89.10
5808;DHT22;2930;42.678;23.312;2023-02-15T01:19:59;2.20;89.10
5808;DHT22;2930;42.678;23.312;2023-02-15T01:22:25;2.20;89.10
5808;DHT22;2930;42.678;23.312;2023-02-15T01:24:51;2.20;89.10
5808;DHT22;2930;42.678;23.312;2023-02-15T01:27:17;2.30;88.90
5808;DHT22;2930;42.678;23.312;2023-02-15T01:29:43;2.30;88.90
5808;DHT22;2930;42.678;23.312;2023-02-15T01:34:44;2.20;89.10
5808;DHT22;2930;42.678;23.312;2023-02-15T01:37:09;2.30;89.10
5808;DHT22;2930;42.678;23.312;2023-02-15T01:39:35;2.30;89.10
5808;DHT22;2930;42.678;23.312;2023-02-15T01:42:00;2.30;88.90
5808;DHT22;2930;42.678;23.312;2023-02-15T01:45:02;2.30;89.00
5808;DHT22;2930;42.678;23.312;2023-02-15T01:47:42;2.30;89.10
5808;DHT22;2930;42.678;23.312;2023-02-15T01:50:10;2.30;89.10
5808;DHT22;2930;42.678;23.312;2023-02-15T01:52:40;2.30;88.90
5808;DHT22;2930;42.678;23.312;2023-02-15T01:55:06;2.30;88.90
5808;DHT22;2930;42.678;23.312;2023-02-15T01:57:33;2.20;89.00
5808;DHT22;2930;42.678;23.312;2023-02-15T02:00:01;2.20;89.10
5808;DHT22;2930;42.678;23.312;2023-02-15T02:02:28;2.20;89.20
5808;DHT22;2930;42.678;23.312;2023-02-15T02:04:59;2.00;89.80
5808;DHT22;2930;42.678;23.312;2023-02-15T02:07:27;2.00;90.10
5808;DHT22;2930;42.678;23.312;2023-02-15T02:09:54;2.00;90.10
5808;DHT22;2930;42.678;23.312;2023-02-15T02:12:21;2.00;90.30
5808;DHT22;2930;42.678;23.312;2023-02-15T02:14:48;2.00;90.00
5808;DHT22;2930;42.678;23.312;2023-02-15T02:17:30;2.10;89.90
5808;DHT22;2930;42.678;23.312;2023-02-15T02:28:15;2.10;90.20
5808;DHT22;2930;42.678;23.312;2023-02-15T02:31:21;2.10;90.00
5808;DHT22;2930;42.678;23.312;2023-02-15T02:34:07;2.10;90.00
5808;DHT22;2930;42.678;23.312;2023-02-15T02:36:59;2.10;90.00
5808;DHT22;2930;42.678;23.312;2023-02-15T02:42:46;2.20;90.00
5808;DHT22;2930;42.678;23.312;2023-02-15T02:48:03;2.20;89.70
5808;DHT22;2930;42.678;23.312;2023-02-15T02:50:30;2.30;89.80
5808;DHT22;2930;42.678;23.312;2023-02-15T02:52:58;2.30;89.70
5808;DHT22;2930;42.678;23.312;2023-02-15T02:55:41;2.30;89.50
5808;DHT22;2930;42.678;23.312;2023-02-15T03:01:20;2.40;89.40
5808;DHT22;2930;42.678;23.312;2023-02-15T03:03:51;2.40;89.40
5808;DHT22;2930;42.678;23.312;2023-02-15T03:06:48;2.40;89.20
5808;DHT22;2930;42.678;23.312;2023-02-15T03:09:25;2.50;89.10
5808;DHT22;2930;42.678;23.312;2023-02-15T03:12:09;2.50;89.00
5808;DHT22;2930;42.678;23.312;2023-02-15T03:14:35;2.50;89.20
5808;DHT22;2930;42.678;23.312;2023-02-15T03:17:02;2.50;89.00
5808;DHT22;2930;42.678;23.312;2023-02-15T03:19:31;2.60;88.80
5808;DHT22;2930;42.678;23.312;2023-02-15T03:22:14;2.60;88.70
5808;DHT22;2930;42.678;23.312;2023-02-15T03:27:25;2.60;89.00
5808;DHT22;2930;42.678;23.312;2023-02-15T03:29:57;2.70;88.90
5808;DHT22;2930;42.678;23.312;2023-02-15T03:32:25;2.60;89.10
5808;DHT22;2930;42.678;23.312;2023-02-15T03:34:52;2.60;89.20
5808;DHT22;2930;42.678;23.312;2023-02-15T03:40:07;2.60;89.00
5808;DHT22;2930;42.678;23.312;2023-02-15T03:48:47;2.70;89.00
5808;DHT22;2930;42.678;23.312;2023-02-15T03:51:18;2.70;89.00
5808;DHT22;2930;42.678;23.312;2023-02-15T03:54:08;2.70;88.90
5808;DHT22;2930;42.678;23.312;2023-02-15T03:56:38;2.70;88.80
5808;DHT22;2930;42.678;23.312;2023-02-15T03:59:04;2.70;88.80
5808;DHT22;2930;42.678;23.312;2023-02-15T04:04:41;2.80;88.60
5808;DHT22;2930;42.678;23.312;2023-02-15T04:07:08;2.80;88.70
5808;DHT22;2930;42.678;23.312;2023-02-15T04:09:35;2.80;88.60
5808;DHT22;2930;42.678;23.312;2023-02-15T04:12:19;2.80;88.60
5808;DHT22;2930;42.678;23.312;2023-02-15T04:14:45;2.80;88.70
5808;DHT22;2930;42.678;23.312;2023-02-15T04:17:30;2.80;88.50
5808;DHT22;2930;42.678;23.312;2023-02-15T04:19:55;2.90;88.50
5808;DHT22;2930;42.678;23.312;2023-02-15T04:22:40;2.70;88.90
5808;DHT22;2930;42.678;23.312;2023-02-15T04:25:24;2.70;89.10
5808;DHT22;2930;42.678;23.312;2023-02-15T04:27:51;2.70;89.10
5808;DHT22;2930;42.678;23.312;2023-02-15T04:30:20;2.80;89.10
5808;DHT22;2930;42.678;23.312;2023-02-15T04:32:47;2.80;88.90
5808;DHT22;2930;42.678;23.312;2023-02-15T04:35:13;2.90;88.80
5808;DHT22;2930;42.678;23.312;2023-02-15T04:37:40;2.80;88.90
5808;DHT22;2930;42.678;23.312;2023-02-15T04:40:07;2.90;88.90
5808;DHT22;2930;42.678;23.312;2023-02-15T04:42:33;2.80;89.10
5808;DHT22;2930;42.678;23.312;2023-02-15T04:44:58;2.90;89.00
5808;DHT22;2930;42.678;23.312;2023-02-15T04:47:24;2.90;88.90
5808;DHT22;2930;42.678;23.312;2023-02-15T04:49:50;2.80;89.10
5808;DHT22;2930;42.678;23.312;2023-02-15T04:52:16;2.80;89.20
5808;DHT22;2930;42.678;23.312;2023-02-15T04:54:43;2.80;89.20
5808;DHT22;2930;42.678;23.312;2023-02-15T04:57:09;2.90;89.10
5808;DHT22;2930;42.678;23.312;2023-02-15T04:59:34;2.90;89.00
5808;DHT22;2930;42.678;23.312;2023-02-15T05:02:00;2.90;88.90
5808;DHT22;2930;42.678;23.312;2023-02-15T05:04:26;2.90;88.90
5808;DHT22;2930;42.678;23.312;2023-02-15T05:06:52;2.90;88.90
5808;DHT22;2930;42.678;23.312;2023-02-15T05:09:17;2.90;89.00
5808;DHT22;2930;42.678;23.312;2023-02-15T05:11:43;2.90;89.00
5808;DHT22;2930;42.678;23.312;2023-02-15T05:14:09;2.90;89.10
5808;DHT22;2930;42.678;23.312;2023-02-15T05:16:34;2.90;89.00
5808;DHT22;2930;42.678;23.312;2023-02-15T05:19:00;2.90;89.10
5808;DHT22;2930;42.678;23.312;2023-02-15T05:21:26;2.90;89.10
5808;DHT22;2930;42.678;23.312;2023-02-15T05:23:51;2.90;88.90
5808;DHT22;2930;42.678;23.312;2023-02-15T05:26:20;2.90;88.90
5808;DHT22;2930;42.678;23.312;2023-02-15T05:29:05;2.90;88.90
5808;DHT22;2930;42.678;23.312;2023-02-15T05:31:31;2.90;88.90
5808;DHT22;2930;42.678;23.312;2023-02-15T05:33:57;2.90;89.00
5808;DHT22;2930;42.678;23.312;2023-02-15T05:36:23;2.90;89.10
5808;DHT22;2930;42.678;23.312;2023-02-15T05:38:48;2.90;89.20
5808;DHT22;2930;42.678;23.312;2023-02-15T05:41:14;2.90;89.10
5808;DHT22;2930;42.678;23.312;2023-02-15T05:43:41;2.90;89.10
5808;DHT22;2930;42.678;23.312;2023-02-15T05:46:07;2.90;89.00
5808;DHT22;2930;42.678;23.312;2023-02-15T05:48:33;2.80;89.30
5808;DHT22;2930;42.678;23.312;2023-02-15T05:51:05;2.90;89.20
5808;DHT22;2930;42.678;23.312;2023-02-15T05:53:34;2.90;89.10
5808;DHT22;2930;42.678;23.312;2023-02-15T05:56:00;2.90;89.20
5808;DHT22;2930;42.678;23.312;2023-02-15T05:58:29;2.80;89.10
5808;DHT22;2930;42.678;23.312;2023-02-15T06:00:55;2.90;89.10
5808;DHT22;2930;42.678;23.312;2023-02-15T06:03:21;3.00;88.90
5808;DHT22;2930;42.678;23.312;2023-02-15T06:05:47;3.00;88.70
5808;DHT22;2930;42.678;23.312;2023-02-15T06:08:13;3.00;88.60
5808;DHT22;2930;42.678;23.312;2023-02-15T06:10:38;3.00;88.50
5808;DHT22;2930;42.678;23.312;2023-02-15T06:13:05;3.00;88.50
5808;DHT22;2930;42.678;23.312;2023-02-15T06:15:31;3.10;88.30
5808;DHT22;2930;42.678;23.312;2023-02-15T06:17:57;3.10;88.30
5808;DHT22;2930;42.678;23.312;2023-02-15T06:20:23;3.10;88.30
5808;DHT22;2930;42.678;23.312;2023-02-15T06:22:48;3.10;88.30
5808;DHT22;2930;42.678;23.312;2023-02-15T06:25:14;3.10;88.30
5808;DHT22;2930;42.678;23.312;2023-02-15T06:27:43;3.10;88.30
5808;DHT22;2930;42.678;23.312;2023-02-15T06:30:09;3.10;88.10
5808;DHT22;2930;42.678;23.312;2023-02-15T06:32:36;3.20;88.10
5808;DHT22;2930;42.678;23.312;2023-02-15T06:35:02;3.20;88.00
5808;DHT22;2930;42.678;23.312;2023-02-15T06:37:27;3.20;87.80
5808;DHT22;2930;42.678;23.312;2023-02-15T06:39:53;3.20;87.80
5808;DHT22;2930;42.678;23.312;2023-02-15T06:42:19;3.20;87.80
5808;DHT22;2930;42.678;23.312;2023-02-15T06:44:45;3.20;87.80
5808;DHT22;2930;42.678;23.312;2023-02-15T06:47:11;3.30;87.70
5808;DHT22;2930;42.678;23.312;2023-02-15T06:49:37;3.40;87.40
5808;DHT22;2930;42.678;23.312;2023-02-15T06:52:03;3.40;87.30
5808;DHT22;2930;42.678;23.312;2023-02-15T06:54:29;3.40;87.10
5808;DHT22;2930;42.678;23.312;2023-02-15T06:56:54;3.50;86.80
5808;DHT22;2930;42.678;23.312;2023-02-15T06:59:20;3.50;86.80
5808;DHT22;2930;42.678;23.312;2023-02-15T07:01:46;3.50;86.70
5808;DHT22;2930;42.678;23.312;2023-02-15T07:04:11;3.50;86.30
5808;DHT22;2930;42.678;23.312;2023-02-15T07:06:37;3.50;86.30
5808;DHT22;2930;42.678;23.312;2023-02-15T07:09:03;3.50;86.20
5808;DHT22;2930;42.678;23.312;2023-02-15T07:11:30;3.60;86.50
5808;DHT22;2930;42.678;23.312;2023-02-15T07:14:15;3.70;85.90
5808;DHT22;2930;42.678;23.312;2023-02-15T07:16:41;3.80;85.60
5808;DHT22;2930;42.678;23.312;2023-02-15T07:19:06;3.90;85.10
5808;DHT22;2930;42.678;23.312;2023-02-15T07:21:33;4.00;84.80
5808;DHT22;2930;42.678;23.312;2023-02-15T07:23:59;4.00;84.70
5808;DHT22;2930;42.678;23.312;2023-02-15T07:26:25;4.00;84.30
5808;DHT22;2930;42.678;23.312;2023-02-15T07:28:51;4.10;84.20
5808;DHT22;2930;42.678;23.312;2023-02-15T07:31:16;4.20;84.10
5808;DHT22;2930;42.678;23.312;2023-02-15T07:33:42;4.20;84.10
5808;DHT22;2930;42.678;23.312;2023-02-15T07:36:08;4.20;83.40
5808;DHT22;2930;42.678;23.312;2023-02-15T07:38:38;4.20;83.40
5808;DHT22;2930;42.678;23.312;2023-02-15T07:41:10;4.30;83.40
5808;DHT22;2930;42.678;23.312;2023-02-15T07:43:40;4.40;83.10
5808;DHT22;2930;42.678;23.312;2023-02-15T07:46:11;4.40;83.10
5808;DHT22;2930;42.678;23.312;2023-02-15T07:48:39;4.50;82.90
5808;DHT22;2930;42.678;23.312;2023-02-15T07:51:06;4.60;82.50
5808;DHT22;2930;42.678;23.312;2023-02-15T07:53:33;4.60;82.30
5808;DHT22;2930;42.678;23.312;2023-02-15T07:56:04;4.70;82.20
5808;DHT22;2930;42.678;23.312;2023-02-15T07:58:30;4.70;82.00
5808;DHT22;2930;42.678;23.312;2023-02-15T08:01:14;4.70;81.90
5808;DHT22;2930;42.678;23.312;2023-02-15T08:03:40;4.70;82.10
5808;DHT22;2930;42.678;23.312;2023-02-15T08:06:06;4.80;82.00
5808;DHT22;2930;42.678;23.312;2023-02-15T08:08:35;4.80;82.00
5808;DHT22;2930;42.678;23.312;2023-02-15T08:13:53;4.80;81.90
5808;DHT22;2930;42.678;23.312;2023-02-15T08:18:57;4.80;81.70
5808;DHT22;2930;42.678;23.312;2023-02-15T08:21:25;4.90;81.90
5808;DHT22;2930;42.678;23.312;2023-02-15T08:23:51;4.90;81.70
5808;DHT22;2930;42.678;23.312;2023-02-15T08:26:17;5.00;81.70
5808;DHT22;2930;42.678;23.312;2023-02-15T08:28:43;5.10;81.40
5808;DHT22;2930;42.678;23.312;2023-02-15T08:31:12;5.10;81.10
5808;DHT22;2930;42.678;23.312;2023-02-15T08:33:40;5.10;80.30
5808;DHT22;2930;42.678;23.312;2023-02-15T08:36:08;5.10;80.10
5808;DHT22;2930;42.678;23.312;2023-02-15T08:38:35;5.00;80.30
5808;DHT22;2930;42.678;23.312;2023-02-15T08:43:42;4.80;80.70
5808;DHT22;2930;42.678;23.312;2023-02-15T08:46:11;4.80;80.50
5808;DHT22;2930;42.678;23.312;2023-02-15T08:48:37;4.80;80.50
5808;DHT22;2930;42.678;23.312;2023-02-15T08:51:12;4.80;80.30
5808;DHT22;2930;42.678;23.312;2023-02-15T08:53:39;4.80;79.90
5808;DHT22;2930;42.678;23.312;2023-02-15T08:56:07;4.70;80.10
5808;DHT22;2930;42.678;23.312;2023-02-15T08:58:33;4.70;80.40
5808;DHT22;2930;42.678;23.312;2023-02-15T09:00:59;4.80;80.30
5808;DHT22;2930;42.678;23.312;2023-02-15T09:03:27;4.90;79.70
5808;DHT22;2930;42.678;23.312;2023-02-15T09:05:58;5.00;79.40
5808;DHT22;2930;42.678;23.312;2023-02-15T09:08:25;5.00;79.30
5808;DHT22;2930;42.678;23.312;2023-02-15T09:10:50;5.10;79.30
5808;DHT22;2930;42.678;23.312;2023-02-15T09:13:16;5.20;79.00
5808;DHT22;2930;42.678;23.312;2023-02-15T09:15:41;5.40;78.80
5808;DHT22;2930;42.678;23.312;2023-02-15T09:18:07;5.50;77.90
5808;DHT22;2930;42.678;23.312;2023-02-15T09:20:36;5.60;77.80
5808;DHT22;2930;42.678;23.312;2023-02-15T09:23:02;5.70;77.40
5808;DHT22;2930;42.678;23.312;2023-02-15T09:25:27;5.80;77.20
5808;DHT22;2930;42.678;23.312;2023-02-15T09:27:53;6.00;77.20
5808;DHT22;2930;42.678;23.312;2023-02-15T09:30:19;6.10;76.30
5808;DHT22;2930;42.678;23.312;2023-02-15T09:32:45;6.20;75.90
5808;DHT22;2930;42.678;23.312;2023-02-15T09:35:13;6.20;76.00
5808;DHT22;2930;42.678;23.312;2023-02-15T09:37:39;6.20;75.40
5808;DHT22;2930;42.678;23.312;2023-02-15T09:40:05;6.20;75.50
5808;DHT22;2930;42.678;23.312;2023-02-15T09:48:28;6.10;75.70
5808;DHT22;2930;42.678;23.312;2023-02-15T09:56:02;6.00;76.10
5808;DHT22;2930;42.678;23.312;2023-02-15T10:01:44;6.10;75.80
5808;DHT22;2930;42.678;23.312;2023-02-15T10:10:30;6.30;76.10
5808;DHT22;2930;42.678;23.312;2023-02-15T10:13:36;6.60;75.00
5808;DHT22;2930;42.678;23.312;2023-02-15T10:19:27;6.50;74.60
5808;DHT22;2930;42.678;23.312;2023-02-15T10:27:47;6.70;74.50
5808;DHT22;2930;42.678;23.312;2023-02-15T10:35:42;6.70;74.40
5808;DHT22;2930;42.678;23.312;2023-02-15T10:46:40;7.40;73.30
5808;DHT22;2930;42.678;23.312;2023-02-15T10:49:20;7.50;72.80
5808;DHT22;2930;42.678;23.312;2023-02-15T10:52:28;7.60;72.10
5808;DHT22;2930;42.678;23.312;2023-02-15T11:00:40;7.90;71.80
5808;DHT22;2930;42.678;23.312;2023-02-15T11:03:33;8.00;71.10
5808;DHT22;2930;42.678;23.312;2023-02-15T11:08:34;8.90;68.90
5808;DHT22;2930;42.678;23.312;2023-02-15T11:11:04;8.90;68.60
5808;DHT22;2930;42.678;23.312;2023-02-15T11:13:39;8.90;68.80
5808;DHT22;2930;42.678;23.312;2023-02-15T11:16:08;8.60;68.90
5808;DHT22;2930;42.678;23.312;2023-02-15T11:18:43;8.40;69.40
5808;DHT22;2930;42.678;23.312;2023-02-15T11:21:20;8.60;70.20
5808;DHT22;2930;42.678;23.312;2023-02-15T11:23:47;9.20;69.30
5808;DHT22;2930;42.678;23.312;2023-02-15T11:26:29;9.70;68.10
5808;DHT22;2930;42.678;23.312;2023-02-15T11:29:37;9.90;67.00
5808;DHT22;2930;42.678;23.312;2023-02-15T11:34:37;10.70;65.40
5808;DHT22;2930;42.678;23.312;2023-02-15T11:37:36;11.10;64.50
5808;DHT22;2930;42.678;23.312;2023-02-15T11:40:26;11.70;64.00
5808;DHT22;2930;42.678;23.312;2023-02-15T11:42:55;12.20;62.70
5808;DHT22;2930;42.678;23.312;2023-02-15T11:47:47;13.20;60.70
5808;DHT22;2930;42.678;23.312;2023-02-15T11:50:20;13.60;60.30
5808;DHT22;2930;42.678;23.312;2023-02-15T11:52:51;13.80;58.90
5808;DHT22;2930;42.678;23.312;2023-02-15T11:55:22;14.10;58.30
5808;DHT22;2930;42.678;23.312;2023-02-15T11:57:58;14.60;58.40
5808;DHT22;2930;42.678;23.312;2023-02-15T12:00:45;15.00;57.50
5808;DHT22;2930;42.678;23.312;2023-02-15T12:06:33;15.50;56.00
5808;DHT22;2930;42.678;23.312;2023-02-15T12:09:07;15.70;55.50
5808;DHT22;2930;42.678;23.312;2023-02-15T12:11:38;15.70;55.00
5808;DHT22;2930;42.678;23.312;2023-02-15T12:14:11;15.60;55.30
5808;DHT22;2930;42.678;23.312;2023-02-15T12:16:56;15.70;55.70
5808;DHT22;2930;42.678;23.312;2023-02-15T12:19:38;15.90;54.90
5808;DHT22;2930;42.678;23.312;2023-02-15T12:22:11;15.80;55.30
5808;DHT22;2930;42.678;23.312;2023-02-15T12:24:47;16.00;55.20
5808;DHT22;2930;42.678;23.312;2023-02-15T12:27:37;16.10;54.70
5808;DHT22;2930;42.678;23.312;2023-02-15T12:30:41;16.10;54.20
5808;DHT22;2930;42.678;23.312;2023-02-15T12:35:40;15.70;54.30
5808;DHT22;2930;42.678;23.312;2023-02-15T12:40:38;15.20;55.30
5808;DHT22;2930;42.678;23.312;2023-02-15T12:43:25;15.20;55.30
5808;DHT22;2930;42.678;23.312;2023-02-15T12:45:50;15.40;55.60
5808;DHT22;2930;42.678;23.312;2023-02-15T12:48:18;15.50;55.10
5808;DHT22;2930;42.678;23.312;2023-02-15T12:50:46;15.70;55.50
5808;DHT22;2930;42.678;23.312;2023-02-15T12:53:16;15.90;54.70
5808;DHT22;2930;42.678;23.312;2023-02-15T12:56:01;16.10;54.50
5808;DHT22;2930;42.678;23.312;2023-02-15T12:58:36;16.00;53.90
5808;DHT22;2930;42.678;23.312;2023-02-15T13:01:23;15.90;54.00
5808;DHT22;2930;42.678;23.312;2023-02-15T13:06:20;16.00;54.50
5808;DHT22;2930;42.678;23.312;2023-02-15T13:08:50;16.30;54.00
5808;DHT22;2930;42.678;23.312;2023-02-15T13:11:35;16.50;53.50
5808;DHT22;2930;42.678;23.312;2023-02-15T13:14:17;16.60;53.00
5808;DHT22;2930;42.678;23.312;2023-02-15T13:16:47;16.80;53.10
5808;DHT22;2930;42.678;23.312;2023-02-15T13:19:16;16.70;52.70
5808;DHT22;2930;42.678;23.312;2023-02-15T13:21:47;16.20;53.10
5808;DHT22;2930;42.678;23.312;2023-02-15T13:24:25;15.70;53.80
5808;DHT22;2930;42.678;23.312;2023-02-15T13:26:57;15.50;54.50
5808;DHT22;2930;42.678;23.312;2023-02-15T13:29:28;15.50;55.00
5808;DHT22;2930;42.678;23.312;2023-02-15T13:31:57;15.60;54.50
5808;DHT22;2930;42.678;23.312;2023-02-15T13:34:31;15.60;54.90
5808;DHT22;2930;42.678;23.312;2023-02-15T13:37:22;15.50;54.50
5808;DHT22;2930;42.678;23.312;2023-02-15T13:40:18;15.20;54.60
5808;DHT22;2930;42.678;23.312;2023-02-15T13:48:47;14.60;55.80
5808;DHT22;2930;42.678;23.312;2023-02-15T13:56:41;14.50;56.20
5808;DHT22;2930;42.678;23.312;2023-02-15T14:04:53;14.00;57.40
5808;DHT22;2930;42.678;23.312;2023-02-15T14:10:46;14.30;57.00
5808;DHT22;2930;42.678;23.312;2023-02-15T14:31:59;12.40;60.70
5808;DHT22;2930;42.678;23.312;2023-02-15T14:34:35;12.30;60.40
5808;DHT22;2930;42.678;23.312;2023-02-15T14:37:03;12.10;60.70
5808;DHT22;2930;42.678;23.312;2023-02-15T14:48:32;10.70;63.40
5808;DHT22;2930;42.678;23.312;2023-02-15T14:50:56;10.40;63.90
5808;DHT22;2930;42.678;23.312;2023-02-15T14:53:34;10.30;64.70
5808;DHT22;2930;42.678;23.312;2023-02-15T14:59:21;10.20;65.00
5808;DHT22;2930;42.678;23.312;2023-02-15T15:01:57;10.00;65.10
5808;DHT22;2930;42.678;23.312;2023-02-15T15:04:25;9.70;65.80
5808;DHT22;2930;42.678;23.312;2023-02-15T15:07:14;9.50;66.40
5808;DHT22;2930;42.678;23.312;2023-02-15T15:09:43;9.40;66.40
5808;DHT22;2930;42.678;23.312;2023-02-15T15:14:49;9.20;66.50
5808;DHT22;2930;42.678;23.312;2023-02-15T15:22:47;8.70;67.70
5808;DHT22;2930;42.678;23.312;2023-02-15T15:25:40;8.50;68.00
5808;DHT22;2930;42.678;23.312;2023-02-15T15:28:06;8.30;68.40
5808;DHT22;2930;42.678;23.312;2023-02-15T15:33:31;7.80;69.30
5808;DHT22;2930;42.678;23.312;2023-02-15T15:49:40;6.30;73.60
5808;DHT22;2930;42.678;23.312;2023-02-15T15:52:20;6.10;74.20
5808;DHT22;2930;42.678;23.312;2023-02-15T15:54:54;5.90;74.90
5808;DHT22;2930;42.678;23.312;2023-02-15T15:57:28;5.80;75.10
5808;DHT22;2930;42.678;23.312;2023-02-15T15:59:56;5.80;75.50
5808;DHT22;2930;42.678;23.312;2023-02-15T16:02:25;5.70;75.70
5808;DHT22;2930;42.678;23.312;2023-02-15T16:04:51;5.60;76.00
5808;DHT22;2930;42.678;23.312;2023-02-15T16:12:30;5.30;77.20
5808;DHT22;2930;42.678;23.312;2023-02-15T16:14:57;5.30;77.40
5808;DHT22;2930;42.678;23.312;2023-02-15T16:17:28;5.20;77.70
5808;DHT22;2930;42.678;23.312;2023-02-15T16:20:11;5.10;77.80
5808;DHT22;2930;42.678;23.312;2023-02-15T16:22:39;5.10;78.00
5808;DHT22;2930;42.678;23.312;2023-02-15T16:27:52;5.00;78.70
5808;DHT22;2930;42.678;23.312;2023-02-15T16:30:30;4.90;78.90
5808;DHT22;2930;42.678;23.312;2023-02-15T16:33:09;4.80;79.10
5808;DHT22;2930;42.678;23.312;2023-02-15T16:35:37;4.70;79.20
5808;DHT22;2930;42.678;23.312;2023-02-15T16:38:03;4.70;79.30
5808;DHT22;2930;42.678;23.312;2023-02-15T16:40:51;4.60;79.50
5808;DHT22;2930;42.678;23.312;2023-02-15T16:43:24;4.60;80.00
5808;DHT22;2930;42.678;23.312;2023-02-15T16:45:51;4.50;80.00
5808;DHT22;2930;42.678;23.312;2023-02-15T16:48:21;4.50;80.10
5808;DHT22;2930;42.678;23.312;2023-02-15T16:50:53;4.30;80.50
5808;DHT22;2930;42.678;23.312;2023-02-15T16:53:24;4.30;80.50
5808;DHT22;2930;42.678;23.312;2023-02-15T16:55:52;4.20;80.80
5808;DHT22;2930;42.678;23.312;2023-02-15T17:01:20;4.20;81.00
5808;DHT22;2930;42.678;23.312;2023-02-15T17:03:49;4.20;80.60
5808;DHT22;2930;42.678;23.312;2023-02-15T17:06:25;4.20;80.80
5808;DHT22;2930;42.678;23.312;2023-02-15T17:08:52;4.20;80.60
5808;DHT22;2930;42.678;23.312;2023-02-15T17:11:20;4.20;81.00
5808;DHT22;2930;42.678;23.312;2023-02-15T17:16:31;4.00;80.90
5808;DHT22;2930;42.678;23.312;2023-02-15T17:19:07;4.10;81.10
5808;DHT22;2930;42.678;23.312;2023-02-15T17:21:41;4.10;81.30
5808;DHT22;2930;42.678;23.312;2023-02-15T17:26:54;4.00;81.40
5808;DHT22;2930;42.678;23.312;2023-02-15T17:31:57;3.90;81.60
5808;DHT22;2930;42.678;23.312;2023-02-15T17:37:28;3.90;81.70
5808;DHT22;2930;42.678;23.312;2023-02-15T17:39:55;3.90;81.60
5808;DHT22;2930;42.678;23.312;2023-02-15T17:42:21;3.90;81.80
5808;DHT22;2930;42.678;23.312;2023-02-15T17:44:48;3.80;82.00
5808;DHT22;2930;42.678;23.312;2023-02-15T17:47:19;3.80;81.90
5808;DHT22;2930;42.678;23.312;2023-02-15T17:49:46;3.80;82.00
5808;DHT22;2930;42.678;23.312;2023-02-15T17:52:15;3.70;82.20
5808;DHT22;2930;42.678;23.312;2023-02-15T17:54:41;3.70;82.10
5808;DHT22;2930;42.678;23.312;2023-02-15T17:57:25;3.70;82.10
5808;DHT22;2930;42.678;23.312;2023-02-15T17:59:52;3.70;82.30
5808;DHT22;2930;42.678;23.312;2023-02-15T18:02:36;3.70;82.20
5808;DHT22;2930;42.678;23.312;2023-02-15T18:05:20;3.70;82.20
5808;DHT22;2930;42.678;23.312;2023-02-15T18:08:11;3.70;82.20
5808;DHT22;2930;42.678;23.312;2023-02-15T18:10:56;3.70;82.10
5808;DHT22;2930;42.678;23.312;2023-02-15T18:13:40;3.70;82.20
5808;DHT22;2930;42.678;23.312;2023-02-15T18:16:14;3.70;82.10
5808;DHT22;2930;42.678;23.312;2023-02-15T18:18:41;3.70;82.00
5808;DHT22;2930;42.678;23.312;2023-02-15T18:21:07;3.70;81.90
5808;DHT22;2930;42.678;23.312;2023-02-15T18:23:35;3.70;81.90
5808;DHT22;2930;42.678;23.312;2023-02-15T18:26:01;3.70;81.90
5808;DHT22;2930;42.678;23.312;2023-02-15T18:28:27;3.70;81.80
5808;DHT22;2930;42.678;23.312;2023-02-15T18:30:53;3.70;81.90
5808;DHT22;2930;42.678;23.312;2023-02-15T18:33:38;3.70;82.00
5808;DHT22;2930;42.678;23.312;2023-02-15T18:36:06;3.70;82.00
5808;DHT22;2930;42.678;23.312;2023-02-15T18:38:32;3.70;82.10
5808;DHT22;2930;42.678;23.312;2023-02-15T18:40:59;3.70;82.10
5808;DHT22;2930;42.678;23.312;2023-02-15T18:43:26;3.70;81.90
5808;DHT22;2930;42.678;23.312;2023-02-15T18:45:51;3.70;81.90
5808;DHT22;2930;42.678;23.312;2023-02-15T18:48:17;3.70;81.80
5808;DHT22;2930;42.678;23.312;2023-02-15T18:50:43;3.70;81.90
5808;DHT22;2930;42.678;23.312;2023-02-15T18:53:19;3.80;81.90
5808;DHT22;2930;42.678;23.312;2023-02-15T18:55:46;3.80;81.90
5808;DHT22;2930;42.678;23.312;2023-02-15T18:58:20;3.80;82.00
5808;DHT22;2930;42.678;23.312;2023-02-15T19:00:47;3.80;81.80
5808;DHT22;2930;42.678;23.312;2023-02-15T19:03:15;3.80;81.70
5808;DHT22;2930;42.678;23.312;2023-02-15T19:05:44;3.80;81.70
5808;DHT22;2930;42.678;23.312;2023-02-15T19:08:18;3.80;81.60
5808;DHT22;2930;42.678;23.312;2023-02-15T19:10:44;3.80;81.50
5808;DHT22;2930;42.678;23.312;2023-02-15T19:13:11;3.80;81.50
5808;DHT22;2930;42.678;23.312;2023-02-15T19:15:38;3.80;81.50
5808;DHT22;2930;42.678;23.312;2023-02-15T19:18:04;3.80;81.60
5808;DHT22;2930;42.678;23.312;2023-02-15T19:20:41;3.80;81.60
5808;DHT22;2930;42.678;23.312;2023-02-15T19:23:16;3.80;81.50
5808;DHT22;2930;42.678;23.312;2023-02-15T19:25:44;3.80;81.40
5808;DHT22;2930;42.678;23.312;2023-02-15T19:28:24;3.80;81.50
5808;DHT22;2930;42.678;23.312;2023-02-15T19:30:53;3.80;81.50
5808;DHT22;2930;42.678;23.312;2023-02-15T19:33:20;3.80;81.50
5808;DHT22;2930;42.678;23.312;2023-02-15T19:35:48;3.80;81.50
5808;DHT22;2930;42.678;23.312;2023-02-15T19:38:19;3.80;81.50
5808;DHT22;2930;42.678;23.312;2023-02-15T19:40:46;3.80;81.60
5808;DHT22;2930;42.678;23.312;2023-02-15T19:43:20;3.80;81.60
5808;DHT22;2930;42.678;23.312;2023-02-15T19:45:51;3.80;81.60
5808;DHT22;2930;42.678;23.312;2023-02-15T19:48:18;3.70;81.60
5808;DHT22;2930;42.678;23.312;2023-02-15T19:50:45;3.70;81.70